createdAt,value
2023-02-23T00:01:56.432Z,9.32
2023-02-23T00:04:42.159Z,9.35
2023-02-23T00:07:10.425Z,9.30
2023-02-23T00:09:37.950Z,9.33
2023-02-23T00:12:09.788Z,9.36
2023-02-23T00:14:38.119Z,9.44
2023-02-23T00:17:14.146Z,9.44
2023-02-23T00:19:43.813Z,9.44
2023-02-23T00:22:12.794Z,9.34
2023-02-23T00:24:42.527Z,9.38
2023-02-23T00:27:12.924Z,9.44
2023-02-23T00:29:40.610Z,9.48
2023-02-23T00:32:08.288Z,9.51
2023-02-23T00:34:36.907Z,9.42
2023-02-23T00:37:04.678Z,9.50
2023-02-23T00:39:32.147Z,9.51
2023-02-23T00:42:03.111Z,9.55
2023-02-23T00:44:32.288Z,9.65
2023-02-23T00:47:00.727Z,9.53
2023-02-23T00:49:28.182Z,9.50
2023-02-23T00:51:55.568Z,9.58
2023-02-23T00:54:23.151Z,9.57
2023-02-23T00:56:51.548Z,9.58
2023-02-23T00:59:19.727Z,9.58
2023-02-23T01:01:48.047Z,9.44
2023-02-23T01:04:16.716Z,9.28
2023-02-23T01:06:46.311Z,9.31
2023-02-23T01:09:16.967Z,9.51
2023-02-23T01:11:47.000Z,9.48
2023-02-23T01:14:15.603Z,9.48
2023-02-23T01:16:42.951Z,9.44
2023-02-23T01:19:11.141Z,9.33
2023-02-23T01:21:42.238Z,9.33
2023-02-23T01:24:10.605Z,9.30
2023-02-23T01:26:41.192Z,9.31
2023-02-23T01:29:12.129Z,9.50
2023-02-23T01:31:42.842Z,9.50
2023-02-23T01:34:13.526Z,9.53
2023-02-23T01:36:42.976Z,9.63
2023-02-23T01:39:15.881Z,9.59
2023-02-23T01:41:43.770Z,9.57
2023-02-23T01:44:14.001Z,9.56
2023-02-23T01:46:45.284Z,9.60
2023-02-23T01:49:20.277Z,9.69
2023-02-23T01:51:57.725Z,9.70
2023-02-23T01:54:31.086Z,9.65
2023-02-23T01:57:01.340Z,9.72
2023-02-23T01:59:39.061Z,9.68
2023-02-23T02:02:07.671Z,9.67
2023-02-23T02:04:43.896Z,9.79
2023-02-23T02:07:14.703Z,9.75
2023-02-23T02:10:03.445Z,9.82
2023-02-23T02:12:31.630Z,9.83
2023-02-23T02:15:00.588Z,9.83
2023-02-23T02:17:42.998Z,9.80
2023-02-23T02:20:37.431Z,9.77
2023-02-23T02:23:23.273Z,9.78
2023-02-23T02:25:56.706Z,9.73
2023-02-23T02:28:36.997Z,9.70
2023-02-23T02:31:31.118Z,9.65
2023-02-23T02:34:20.087Z,9.63
2023-02-23T02:37:07.314Z,9.64
2023-02-23T02:40:14.066Z,9.64
2023-02-23T02:43:21.266Z,9.46
2023-02-23T02:46:09.677Z,9.51
2023-02-23T02:48:49.086Z,9.54
2023-02-23T02:51:29.879Z,9.57
2023-02-23T02:54:24.106Z,9.43
2023-02-23T02:56:57.724Z,9.43
2023-02-23T02:59:46.239Z,9.48
2023-02-23T03:02:39.440Z,9.53
2023-02-23T03:05:33.489Z,9.53
2023-02-23T03:08:41.007Z,9.49
2023-02-23T03:11:30.169Z,9.50
2023-02-23T03:14:50.725Z,9.57
2023-02-23T03:18:06.258Z,9.52
2023-02-23T03:20:52.136Z,9.56
2023-02-23T03:23:53.729Z,9.55
2023-02-23T03:27:06.686Z,9.50
2023-02-23T03:30:02.923Z,9.45
2023-02-23T03:32:52.970Z,9.48
2023-02-23T03:36:03.322Z,9.46
2023-02-23T03:39:01.501Z,9.47
2023-02-23T03:41:49.053Z,9.53
2023-02-23T03:44:55.788Z,9.57
2023-02-23T03:47:46.236Z,9.61
2023-02-23T03:50:49.312Z,9.64
2023-02-23T03:53:43.349Z,9.58
2023-02-23T03:56:32.365Z,9.48
2023-02-23T03:59:21.483Z,9.57
2023-02-23T04:02:10.248Z,9.53
2023-02-23T04:04:59.137Z,9.39
2023-02-23T04:07:45.661Z,9.33
2023-02-23T04:10:31.616Z,9.35
2023-02-23T04:13:16.663Z,9.33
2023-02-23T04:15:57.386Z,9.44
2023-02-23T04:18:34.209Z,9.42
2023-02-23T04:21:02.572Z,9.44
2023-02-23T04:23:30.313Z,9.44
2023-02-23T04:25:57.875Z,9.41
2023-02-23T04:28:27.388Z,9.43
2023-02-23T04:30:54.880Z,9.41
2023-02-23T04:33:24.085Z,9.42
2023-02-23T04:35:55.039Z,9.32
2023-02-23T04:38:23.308Z,9.39
2023-02-23T04:40:50.918Z,9.39
2023-02-23T04:43:18.449Z,9.43
2023-02-23T04:45:46.066Z,9.43
2023-02-23T04:48:13.493Z,9.46
2023-02-23T04:50:40.888Z,9.46
2023-02-23T04:53:08.425Z,9.46
2023-02-23T04:55:35.871Z,9.46
2023-02-23T04:58:03.693Z,9.54
2023-02-23T05:00:31.597Z,9.42
2023-02-23T05:02:59.010Z,9.42
2023-02-23T05:05:26.418Z,9.50
2023-02-23T05:07:55.116Z,9.46
2023-02-23T05:10:22.627Z,9.53
2023-02-23T05:12:50.240Z,9.48
2023-02-23T05:15:17.664Z,9.49
2023-02-23T05:17:45.040Z,9.52
2023-02-23T05:20:13.804Z,9.54
2023-02-23T05:22:41.539Z,9.54
2023-02-23T05:25:10.313Z,9.51
2023-02-23T05:27:38.249Z,9.46
2023-02-23T05:30:07.893Z,9.37
2023-02-23T05:32:35.513Z,9.33
2023-02-23T05:35:03.653Z,9.39
2023-02-23T05:37:31.210Z,9.47
2023-02-23T05:39:58.608Z,9.43
2023-02-23T05:42:26.181Z,9.50
2023-02-23T05:44:53.526Z,9.49
2023-02-23T05:47:20.932Z,9.50
2023-02-23T05:49:48.358Z,9.51
2023-02-23T05:52:15.836Z,9.47
2023-02-23T05:54:43.448Z,9.50
2023-02-23T05:57:10.770Z,9.50
2023-02-23T05:59:38.980Z,9.57
2023-02-23T06:02:06.445Z,9.59
2023-02-23T06:04:34.456Z,9.56
2023-02-23T06:07:01.898Z,9.57
2023-02-23T06:09:29.228Z,9.56
2023-02-23T06:11:57.402Z,9.55
2023-02-23T06:14:24.684Z,9.51
2023-02-23T06:16:52.037Z,9.44
2023-02-23T06:19:19.494Z,9.43
2023-02-23T06:21:46.772Z,9.45
2023-02-23T06:24:14.190Z,9.46
2023-02-23T06:26:44.362Z,9.46
2023-02-23T06:29:12.868Z,9.48
2023-02-23T06:31:40.262Z,9.43
2023-02-23T06:34:07.691Z,9.43
2023-02-23T06:36:35.380Z,9.46
2023-02-23T06:39:03.782Z,9.50
2023-02-23T06:41:32.812Z,9.48
2023-02-23T06:44:00.107Z,9.45
2023-02-23T06:46:27.990Z,9.43
2023-02-23T06:48:56.840Z,9.42
2023-02-23T06:51:24.181Z,9.44
2023-02-23T06:53:53.423Z,9.39
2023-02-23T06:56:21.192Z,9.38
2023-02-23T06:58:48.883Z,9.53
2023-02-23T07:01:16.946Z,9.61
2023-02-23T07:03:44.653Z,9.57
2023-02-23T07:06:12.162Z,9.54
2023-02-23T07:08:39.485Z,9.54
2023-02-23T07:11:13.496Z,9.53
2023-02-23T07:13:41.442Z,9.59
2023-02-23T07:16:09.604Z,9.65
2023-02-23T07:18:37.225Z,9.56
2023-02-23T07:21:04.875Z,9.65
2023-02-23T07:23:32.243Z,9.70
2023-02-23T07:26:00.942Z,9.72
2023-02-23T07:28:28.894Z,9.74
2023-02-23T07:30:57.545Z,9.79
2023-02-23T07:33:25.934Z,9.70
2023-02-23T07:35:53.272Z,9.68
2023-02-23T07:38:20.634Z,9.76
2023-02-23T07:40:50.776Z,9.78
2023-02-23T07:43:20.732Z,9.88
2023-02-23T07:45:48.833Z,9.86
2023-02-23T07:48:16.120Z,9.88
2023-02-23T07:50:43.625Z,9.83
2023-02-23T07:53:11.480Z,9.87
2023-02-23T07:55:40.262Z,9.94
2023-02-23T07:58:08.422Z,9.92
2023-02-23T08:00:38.939Z,10.09
2023-02-23T08:03:07.356Z,10.19
2023-02-23T08:05:35.747Z,10.23
2023-02-23T08:08:03.185Z,10.25
2023-02-23T08:10:30.973Z,10.26
2023-02-23T08:13:00.124Z,10.25
2023-02-23T08:15:27.491Z,10.25
2023-02-23T08:17:54.865Z,10.28
2023-02-23T08:20:22.303Z,10.36
2023-02-23T08:22:56.845Z,10.41
2023-02-23T08:25:24.779Z,10.56
2023-02-23T08:27:52.793Z,10.55
2023-02-23T08:30:24.587Z,10.60
2023-02-23T08:32:52.116Z,10.64
2023-02-23T08:35:20.294Z,10.73
2023-02-23T08:37:47.802Z,10.76
2023-02-23T08:40:19.589Z,10.88
2023-02-23T08:42:49.148Z,10.87
2023-02-23T08:45:16.538Z,10.87
2023-02-23T08:47:43.856Z,10.84
2023-02-23T08:50:12.107Z,10.86
2023-02-23T08:52:40.773Z,10.98
2023-02-23T08:55:18.072Z,10.93
2023-02-23T08:57:45.416Z,10.95
2023-02-23T09:00:16.909Z,11.06
2023-02-23T09:02:47.228Z,11.11
2023-02-23T09:05:37.747Z,11.06
2023-02-23T09:08:18.121Z,11.16
2023-02-23T09:10:45.790Z,11.21
2023-02-23T09:13:13.837Z,11.29
2023-02-23T09:15:42.179Z,11.35
2023-02-23T09:18:14.875Z,11.36
2023-02-23T09:20:43.352Z,11.40
2023-02-23T09:23:12.366Z,11.43
2023-02-23T09:25:43.228Z,11.45
2023-02-23T09:28:18.195Z,11.53
2023-02-23T09:30:46.793Z,11.58
2023-02-23T09:33:14.385Z,11.54
2023-02-23T09:35:41.775Z,11.51
2023-02-23T09:38:09.666Z,11.47
2023-02-23T09:40:47.365Z,11.47
2023-02-23T09:43:24.295Z,11.53
2023-02-23T09:45:56.101Z,11.55
2023-02-23T09:48:27.675Z,11.57
2023-02-23T09:50:56.538Z,11.58
2023-02-23T09:53:40.638Z,11.58
2023-02-23T09:56:21.965Z,11.57
2023-02-23T09:58:50.404Z,11.56
2023-02-23T10:01:32.966Z,11.67
2023-02-23T10:04:20.388Z,11.71
2023-02-23T10:07:12.946Z,11.79
2023-02-23T10:10:02.845Z,11.74
2023-02-23T10:12:50.725Z,11.75
2023-02-23T10:15:28.968Z,11.74
2023-02-23T10:18:15.116Z,11.82
2023-02-23T10:20:50.995Z,11.84
2023-02-23T10:23:32.021Z,11.99
2023-02-23T10:26:02.320Z,11.92
2023-02-23T10:28:34.413Z,12.05
2023-02-23T10:31:07.280Z,12.13
2023-02-23T10:33:41.992Z,12.01
2023-02-23T10:36:19.294Z,12.02
2023-02-23T10:38:47.211Z,11.98
2023-02-23T10:41:15.129Z,12.02
2023-02-23T10:43:42.609Z,12.14
2023-02-23T10:46:21.296Z,12.13
2023-02-23T10:48:52.788Z,12.19
2023-02-23T10:51:25.353Z,12.12
2023-02-23T10:53:53.847Z,12.15
2023-02-23T10:56:23.367Z,12.09
2023-02-23T10:58:56.529Z,12.24
2023-02-23T11:02:00.420Z,12.13
2023-02-23T11:04:34.978Z,12.12
2023-02-23T11:07:23.185Z,12.14
2023-02-23T11:09:51.703Z,12.09
2023-02-23T11:12:29.719Z,12.19
2023-02-23T11:14:58.596Z,12.19
2023-02-23T11:17:35.231Z,12.18
2023-02-23T11:20:19.221Z,12.21
2023-02-23T11:22:47.107Z,12.21
2023-02-23T11:25:22.035Z,12.29
2023-02-23T11:27:51.698Z,12.28
2023-02-23T11:30:24.570Z,12.36
2023-02-23T11:32:56.398Z,12.47
2023-02-23T11:35:23.670Z,12.50
2023-02-23T11:37:50.951Z,12.39
2023-02-23T11:40:34.838Z,12.51
2023-02-23T11:43:05.169Z,12.46
2023-02-23T11:45:39.177Z,12.47
2023-02-23T11:48:06.925Z,12.47
2023-02-23T11:50:36.258Z,12.52
2023-02-23T11:53:14.640Z,12.47
2023-02-23T11:55:55.784Z,12.58
2023-02-23T11:58:35.962Z,12.60
2023-02-23T12:01:12.503Z,12.59
2023-02-23T12:03:50.024Z,12.71
2023-02-23T12:06:41.162Z,12.50
2023-02-23T12:09:26.717Z,12.54
2023-02-23T12:12:18.353Z,12.65
2023-02-23T12:14:55.844Z,12.57
2023-02-23T12:17:29.556Z,12.65
2023-02-23T12:20:29.620Z,12.81
2023-02-23T12:23:07.878Z,12.75
2023-02-23T12:25:43.139Z,12.82
2023-02-23T12:28:19.620Z,12.81
2023-02-23T12:31:01.978Z,12.78
2023-02-23T12:33:39.573Z,12.94
2023-02-23T12:36:31.841Z,13.10
2023-02-23T12:39:27.394Z,13.34
2023-02-23T12:42:07.499Z,13.31
2023-02-23T12:44:49.411Z,13.19
2023-02-23T12:47:33.924Z,13.19
2023-02-23T12:50:19.912Z,13.23
2023-02-23T12:52:53.787Z,13.16
2023-02-23T12:55:38.409Z,13.34
2023-02-23T12:58:13.044Z,13.14
2023-02-23T13:01:12.737Z,13.29
2023-02-23T13:04:07.510Z,13.31
2023-02-23T13:07:05.234Z,13.22
2023-02-23T13:09:49.298Z,13.08
2023-02-23T13:12:50.414Z,13.20
2023-02-23T13:15:39.671Z,13.04
2023-02-23T13:18:32.276Z,13.29
2023-02-23T13:21:11.487Z,13.18
2023-02-23T13:23:50.762Z,13.14
2023-02-23T13:26:21.025Z,13.16
2023-02-23T13:29:14.079Z,13.15
2023-02-23T13:31:43.679Z,13.08
2023-02-23T13:34:26.239Z,13.09
2023-02-23T13:36:54.816Z,13.08
2023-02-23T13:39:36.087Z,13.14
2023-02-23T13:42:45.361Z,13.13
2023-02-23T13:45:24.251Z,13.06
2023-02-23T13:48:28.830Z,13.06
2023-02-23T13:51:14.575Z,13.11
2023-02-23T13:53:47.915Z,13.02
2023-02-23T13:56:19.130Z,12.97
2023-02-23T13:58:51.585Z,12.97
2023-02-23T14:01:27.660Z,13.01
2023-02-23T14:03:58.141Z,12.99
2023-02-23T14:06:28.000Z,13.04
2023-02-23T14:09:24.397Z,13.02
2023-02-23T14:11:56.650Z,13.04
2023-02-23T14:14:33.203Z,13.08
2023-02-23T14:17:15.820Z,13.10
2023-02-23T14:20:13.302Z,13.13
2023-02-23T14:23:15.888Z,13.11
2023-02-23T14:25:52.352Z,13.06
2023-02-23T14:28:32.753Z,12.97
2023-02-23T14:31:23.280Z,12.94
2023-02-23T14:33:57.051Z,12.95
2023-02-23T14:36:24.423Z,13.06
2023-02-23T14:38:51.748Z,13.00
2023-02-23T14:41:30.091Z,12.98
2023-02-23T14:44:12.329Z,13.00
2023-02-23T14:47:01.611Z,12.97
2023-02-23T14:49:35.089Z,13.00
2023-02-23T14:52:09.023Z,12.98
2023-02-23T14:54:39.480Z,13.11
2023-02-23T14:57:18.160Z,13.10
2023-02-23T14:59:51.672Z,13.17
2023-02-23T15:02:24.710Z,13.03
2023-02-23T15:04:52.839Z,13.02
2023-02-23T15:07:31.186Z,13.03
2023-02-23T15:10:01.327Z,13.00
2023-02-23T15:12:35.048Z,12.93
2023-02-23T15:15:05.055Z,12.86
2023-02-23T15:17:34.491Z,12.84
2023-02-23T15:20:17.074Z,12.82
2023-02-23T15:22:51.900Z,12.84
2023-02-23T15:25:24.249Z,12.88
2023-02-23T15:27:52.299Z,12.86
2023-02-23T15:30:30.632Z,12.84
2023-02-23T15:33:12.386Z,12.81
2023-02-23T15:35:45.671Z,12.78
2023-02-23T15:38:41.733Z,12.83
2023-02-23T15:41:15.423Z,12.80
2023-02-23T15:43:43.543Z,12.81
2023-02-23T15:46:26.682Z,12.80
2023-02-23T15:48:58.917Z,12.68
2023-02-23T15:51:56.803Z,12.65
2023-02-23T15:54:32.484Z,12.59
2023-02-23T15:57:17.395Z,12.66
2023-02-23T15:59:47.413Z,12.58
2023-02-23T16:02:20.447Z,12.64
2023-02-23T16:04:53.828Z,12.61
2023-02-23T16:07:27.535Z,12.50
2023-02-23T16:10:18.948Z,12.52
2023-02-23T16:12:50.682Z,12.51
2023-02-23T16:15:24.534Z,12.48
2023-02-23T16:17:59.473Z,12.47
2023-02-23T16:20:42.610Z,12.36
2023-02-23T16:23:33.382Z,12.36
2023-02-23T16:26:11.726Z,12.37
2023-02-23T16:28:45.123Z,12.34
2023-02-23T16:31:20.062Z,12.30
2023-02-23T16:33:58.760Z,12.33
2023-02-23T16:36:41.104Z,12.29
2023-02-23T16:39:12.592Z,12.27
2023-02-23T16:41:40.059Z,12.30
2023-02-23T16:44:11.370Z,12.27
2023-02-23T16:46:55.589Z,12.24
2023-02-23T16:49:23.640Z,12.22
2023-02-23T16:51:51.654Z,12.21
2023-02-23T16:54:19.025Z,12.22
2023-02-23T16:56:47.949Z,12.19
2023-02-23T16:59:18.403Z,12.16
2023-02-23T17:01:46.682Z,12.16
2023-02-23T17:04:15.729Z,12.14
2023-02-23T17:06:44.158Z,12.17
2023-02-23T17:09:15.104Z,12.18
2023-02-23T17:11:43.957Z,12.18
2023-02-23T17:14:27.469Z,12.21
2023-02-23T17:16:54.941Z,12.17
2023-02-23T17:19:24.687Z,12.15
2023-02-23T17:21:53.414Z,12.10
2023-02-23T17:24:25.909Z,12.09
2023-02-23T17:26:54.292Z,12.07
2023-02-23T17:29:21.754Z,12.03
2023-02-23T17:31:49.675Z,12.04
2023-02-23T17:34:17.667Z,12.00
2023-02-23T17:36:45.128Z,12.04
2023-02-23T17:39:14.252Z,11.99
2023-02-23T17:41:41.743Z,11.97
2023-02-23T17:44:09.603Z,11.99
2023-02-23T17:46:37.993Z,11.93
2023-02-23T17:49:05.456Z,11.95
2023-02-23T17:51:32.849Z,11.81
2023-02-23T17:54:00.314Z,11.73
2023-02-23T17:56:28.292Z,11.74
2023-02-23T17:58:55.698Z,11.72
2023-02-23T18:01:23.473Z,11.72
2023-02-23T18:03:51.096Z,11.70
2023-02-23T18:06:19.820Z,11.69
2023-02-23T18:08:47.357Z,11.57
2023-02-23T18:11:16.512Z,11.57
2023-02-23T18:13:45.170Z,11.55
2023-02-23T18:16:13.738Z,11.51
2023-02-23T18:18:44.802Z,11.46
2023-02-23T18:21:15.137Z,11.45
2023-02-23T18:23:43.230Z,11.42
2023-02-23T18:26:13.864Z,11.34
2023-02-23T18:28:44.384Z,11.30
2023-02-23T18:31:17.208Z,11.25
2023-02-23T18:33:46.229Z,11.22
2023-02-23T18:36:18.054Z,11.17
2023-02-23T18:38:45.494Z,11.03
2023-02-23T18:41:13.023Z,10.89
2023-02-23T18:43:40.667Z,10.92
2023-02-23T18:46:09.639Z,10.94
2023-02-23T18:48:37.868Z,10.93
2023-02-23T18:51:07.126Z,10.96
2023-02-23T18:53:37.305Z,10.83
2023-02-23T18:56:06.078Z,10.81
2023-02-23T18:58:34.558Z,10.69
2023-02-23T19:01:02.068Z,10.68
2023-02-23T19:03:29.468Z,10.59
2023-02-23T19:05:59.014Z,10.58
2023-02-23T19:08:26.440Z,10.57
2023-02-23T19:10:53.985Z,10.43
2023-02-23T19:13:22.278Z,10.39
2023-02-23T19:15:50.020Z,10.45
2023-02-23T19:18:17.471Z,10.27
2023-02-23T19:20:44.868Z,10.36
2023-02-23T19:23:13.216Z,10.37
2023-02-23T19:25:40.603Z,10.42
2023-02-23T19:28:09.423Z,10.23
2023-02-23T19:30:38.037Z,10.21
2023-02-23T19:33:05.816Z,10.19
2023-02-23T19:35:33.357Z,10.26
2023-02-23T19:38:02.465Z,10.28
2023-02-23T19:40:30.933Z,10.30
2023-02-23T19:42:58.348Z,10.24
2023-02-23T19:45:26.015Z,10.07
2023-02-23T19:47:53.829Z,10.10
2023-02-23T19:50:21.902Z,10.08
2023-02-23T19:52:49.532Z,10.13
2023-02-23T19:55:16.932Z,10.14
2023-02-23T19:57:44.403Z,10.13
2023-02-23T20:00:13.293Z,10.16
2023-02-23T20:02:44.584Z,10.23
2023-02-23T20:05:14.137Z,10.20
2023-02-23T20:07:42.044Z,10.20
2023-02-23T20:10:16.440Z,10.20
2023-02-23T20:12:44.747Z,10.08
2023-02-23T20:15:14.893Z,9.90
2023-02-23T20:17:42.485Z,9.79
2023-02-23T20:20:11.306Z,9.83
2023-02-23T20:22:41.437Z,9.96
2023-02-23T20:25:12.589Z,9.91
2023-02-23T20:27:40.357Z,9.88
2023-02-23T20:30:08.366Z,9.73
2023-02-23T20:32:35.866Z,9.59
2023-02-23T20:35:03.694Z,9.37
2023-02-23T20:37:31.359Z,9.37
2023-02-23T20:39:59.659Z,9.39
2023-02-23T20:42:29.540Z,9.41
2023-02-23T20:44:57.083Z,9.48
2023-02-23T20:47:24.738Z,9.55
2023-02-23T20:49:52.148Z,9.41
2023-02-23T20:52:19.572Z,9.55
2023-02-23T20:54:47.474Z,9.55
2023-02-23T20:57:15.481Z,9.62
2023-02-23T20:59:44.753Z,9.63
2023-02-23T21:02:14.074Z,9.55
2023-02-23T21:04:44.258Z,9.58
2023-02-23T21:07:13.443Z,9.64
2023-02-23T21:09:40.941Z,9.74
2023-02-23T21:12:10.314Z,9.71
2023-02-23T21:14:37.689Z,9.60
2023-02-23T21:17:06.511Z,9.65
2023-02-23T21:19:34.027Z,9.65
2023-02-23T21:22:01.899Z,9.68
2023-02-23T21:24:33.773Z,9.51
2023-02-23T21:27:05.364Z,9.48
2023-02-23T21:29:32.673Z,9.45
2023-02-23T21:32:00.110Z,9.53
2023-02-23T21:34:27.620Z,9.56
2023-02-23T21:36:55.297Z,9.54
2023-02-23T21:39:22.979Z,9.54
2023-02-23T21:41:50.405Z,9.43
2023-02-23T21:44:17.785Z,9.34
2023-02-23T21:46:45.179Z,9.30
2023-02-23T21:49:12.687Z,9.34
2023-02-23T21:51:40.284Z,9.35
2023-02-23T21:54:07.887Z,9.49
2023-02-23T21:56:36.931Z,9.44
2023-02-23T21:59:06.005Z,9.52
2023-02-23T22:01:35.527Z,9.38
2023-02-23T22:04:04.463Z,9.40
2023-02-23T22:06:43.200Z,9.28
2023-02-23T22:09:11.639Z,9.14
2023-02-23T22:11:44.056Z,9.20
2023-02-23T22:14:11.916Z,9.24
2023-02-23T22:16:43.272Z,9.14
2023-02-23T22:19:12.059Z,9.03
2023-02-23T22:21:42.002Z,8.93
2023-02-23T22:24:14.068Z,8.95
2023-02-23T22:26:50.502Z,8.91
2023-02-23T22:29:18.071Z,8.92
2023-02-23T22:31:45.580Z,8.81
2023-02-23T22:34:13.061Z,8.74
2023-02-23T22:36:40.564Z,8.74
2023-02-23T22:39:13.136Z,8.75
2023-02-23T22:41:43.449Z,8.62
2023-02-23T22:44:13.125Z,8.70
2023-02-23T22:46:41.791Z,8.59
2023-02-23T22:49:15.983Z,8.52
2023-02-23T22:51:43.955Z,8.66
2023-02-23T22:54:35.717Z,8.66
2023-02-23T22:57:03.088Z,8.57
2023-02-23T22:59:30.650Z,8.58
2023-02-23T23:01:57.994Z,8.57
2023-02-23T23:04:28.202Z,8.57
2023-02-23T23:06:55.624Z,8.57
2023-02-23T23:09:23.059Z,8.51
2023-02-23T23:11:50.905Z,8.43
2023-02-23T23:14:19.393Z,8.38
2023-02-23T23:16:52.589Z,8.42
2023-02-23T23:19:24.284Z,8.57
2023-02-23T23:21:55.061Z,8.64
2023-02-23T23:24:24.720Z,8.49
2023-02-23T23:26:59.968Z,8.59
2023-02-23T23:29:32.442Z,8.53
2023-02-23T23:32:02.371Z,8.53
2023-02-23T23:34:33.434Z,8.45
2023-02-23T23:37:02.616Z,8.46
2023-02-23T23:39:29.903Z,8.53
2023-02-23T23:41:57.395Z,8.43
2023-02-23T23:44:29.105Z,8.32
2023-02-23T23:46:56.903Z,8.24
2023-02-23T23:49:27.779Z,8.19
2023-02-23T23:51:56.940Z,8.20
2023-02-23T23:54:30.876Z,8.21
2023-02-23T23:57:01.509Z,8.21
2023-02-23T23:59:29.829Z,8.16
